createdAt,value
2022-09-21T00:00:48.556Z,97438.56
2022-09-21T00:03:16.673Z,97436.78
2022-09-21T00:05:44.244Z,97441.97
2022-09-21T00:08:13.721Z,97428.47
2022-09-21T00:10:41.351Z,97434.47
2022-09-21T00:13:09.858Z,97435.28
2022-09-21T00:15:40.579Z,97435.47
2022-09-21T00:18:11.173Z,97440.94
2022-09-21T00:20:43.467Z,97431.22
2022-09-21T00:23:11.383Z,97434.84
2022-09-21T00:25:39.056Z,97433.97
2022-09-21T00:28:06.603Z,97432.00
2022-09-21T00:30:34.101Z,97433.66
2022-09-21T00:33:01.579Z,97433.00
2022-09-21T00:35:30.370Z,97430.69
2022-09-21T00:38:01.942Z,97438.50
2022-09-21T00:40:29.582Z,97424.84
2022-09-21T00:43:12.742Z,97431.66
2022-09-21T00:45:40.354Z,97434.94
2022-09-21T00:48:08.004Z,97433.31
2022-09-21T00:50:41.934Z,97436.84
2022-09-21T00:53:09.478Z,97432.63
2022-09-21T00:55:41.908Z,97435.25
2022-09-21T00:58:13.096Z,97433.59
2022-09-21T01:00:41.286Z,97433.22
2022-09-21T01:03:10.287Z,97427.66
2022-09-21T01:05:39.152Z,97438.19
2022-09-21T01:08:12.401Z,97437.53
2022-09-21T01:10:47.729Z,97428.88
2022-09-21T01:13:29.010Z,97438.34
2022-09-21T01:16:03.239Z,97432.84
2022-09-21T01:18:39.076Z,97437.22
2022-09-21T01:21:20.675Z,97437.53
2022-09-21T01:24:24.932Z,97427.81
2022-09-21T01:27:18.387Z,97424.84
2022-09-21T01:29:52.743Z,97432.66
2022-09-21T01:32:25.122Z,97431.16
2022-09-21T01:34:56.367Z,97434.44
2022-09-21T01:37:28.835Z,97428.69
2022-09-21T01:40:01.856Z,97435.81
2022-09-21T01:42:32.764Z,97435.56
2022-09-21T01:45:05.566Z,97436.81
2022-09-21T01:47:33.117Z,97436.00
2022-09-21T01:50:04.128Z,97436.56
2022-09-21T01:52:37.867Z,97442.88
2022-09-21T01:55:11.331Z,97432.75
2022-09-21T01:57:44.212Z,97440.84
2022-09-21T02:00:15.812Z,97438.84
2022-09-21T02:02:50.335Z,97438.84
2022-09-21T02:05:21.057Z,97443.13
2022-09-21T02:07:51.149Z,97437.56
2022-09-21T02:10:23.620Z,97434.84
2022-09-21T02:12:56.819Z,97437.63
2022-09-21T02:15:34.156Z,97436.09
2022-09-21T02:18:07.881Z,97428.47
2022-09-21T02:20:43.426Z,97432.69
2022-09-21T02:23:17.677Z,97437.44
2022-09-21T02:25:53.267Z,97429.53
2022-09-21T02:28:29.699Z,97440.06
2022-09-21T02:31:07.353Z,97431.59
2022-09-21T02:33:45.516Z,97431.59
2022-09-21T02:36:20.518Z,97435.03
2022-09-21T02:38:54.418Z,97433.25
2022-09-21T02:41:28.127Z,97430.91
2022-09-21T02:44:03.010Z,97436.22
2022-09-21T02:46:38.866Z,97433.72
2022-09-21T02:49:11.270Z,97437.94
2022-09-21T02:51:44.138Z,97435.66
2022-09-21T02:54:14.378Z,97441.53
2022-09-21T02:56:43.498Z,97438.09
2022-09-21T02:59:11.723Z,97445.34
2022-09-21T03:01:42.183Z,97441.56
2022-09-21T03:04:09.900Z,97440.22
2022-09-21T03:06:37.729Z,97444.72
2022-09-21T03:09:05.453Z,97447.47
2022-09-21T03:11:33.805Z,97439.66
2022-09-21T03:14:02.339Z,97438.84
2022-09-21T03:16:29.851Z,97435.84
2022-09-21T03:18:58.657Z,97442.84
2022-09-21T03:21:26.300Z,97444.06
2022-09-21T03:23:53.968Z,97449.09
2022-09-21T03:26:22.353Z,97441.97
2022-09-21T03:28:50.304Z,97447.84
2022-09-21T03:31:18.063Z,97450.16
2022-09-21T03:33:45.584Z,97450.00
2022-09-21T03:36:14.860Z,97450.84
2022-09-21T03:38:42.635Z,97449.88
2022-09-21T03:41:10.377Z,97452.78
2022-09-21T03:43:37.915Z,97454.00
2022-09-21T03:46:05.846Z,97460.56
2022-09-21T03:48:33.605Z,97460.56
2022-09-21T03:51:01.091Z,97460.81
2022-09-21T03:53:29.899Z,97460.00
2022-09-21T03:55:58.799Z,97461.63
2022-09-21T03:58:26.289Z,97459.03
2022-09-21T04:00:54.486Z,97454.50
2022-09-21T04:03:22.268Z,97460.91
2022-09-21T04:05:49.762Z,97465.94
2022-09-21T04:08:17.260Z,97463.78
2022-09-21T04:10:46.129Z,97463.84
2022-09-21T04:13:14.200Z,97459.75
2022-09-21T04:15:41.755Z,97467.44
2022-09-21T04:18:09.600Z,97466.63
2022-09-21T04:20:37.066Z,97470.03
2022-09-21T04:23:04.579Z,97465.53
2022-09-21T04:25:33.351Z,97470.47
2022-09-21T04:28:02.703Z,97466.38
2022-09-21T04:30:33.233Z,97467.84
2022-09-21T04:33:04.407Z,97469.94
2022-09-21T04:35:31.855Z,97468.28
2022-09-21T04:37:59.664Z,97462.41
2022-09-21T04:40:28.942Z,97463.38
2022-09-21T04:43:03.761Z,97464.31
2022-09-21T04:45:39.421Z,97468.44
2022-09-21T04:48:23.083Z,97467.81
2022-09-21T04:50:51.790Z,97462.59
2022-09-21T04:53:19.340Z,97463.44
2022-09-21T04:55:47.219Z,97468.38
2022-09-21T04:58:14.694Z,97471.38
2022-09-21T05:00:44.148Z,97474.66
2022-09-21T05:03:11.929Z,97474.66
2022-09-21T05:05:39.994Z,97480.94
2022-09-21T05:08:07.888Z,97480.09
2022-09-21T05:10:34.936Z,97477.66
2022-09-21T05:13:03.018Z,97486.13
2022-09-21T05:15:31.558Z,97477.38
2022-09-21T05:18:01.325Z,97492.66
2022-09-21T05:20:29.820Z,97493.19
2022-09-21T05:23:02.635Z,97492.13
2022-09-21T05:25:31.787Z,97495.50
2022-09-21T05:28:00.438Z,97492.34
2022-09-21T05:30:29.355Z,97490.84
2022-09-21T05:33:04.049Z,97499.56
2022-09-21T05:35:39.867Z,97507.63
2022-09-21T05:38:14.832Z,97503.25
2022-09-21T05:40:43.759Z,97499.19
2022-09-21T05:43:12.755Z,97505.19
2022-09-21T05:45:47.727Z,97511.78
2022-09-21T05:48:21.733Z,97512.88
2022-09-21T05:51:00.317Z,97512.59
2022-09-21T05:53:59.116Z,97519.69
2022-09-21T05:56:40.609Z,97514.25
2022-09-21T05:59:23.202Z,97525.69
2022-09-21T06:02:04.875Z,97528.16
2022-09-21T06:04:35.240Z,97522.41
2022-09-21T06:07:03.836Z,97525.25
2022-09-21T06:09:32.340Z,97527.16
2022-09-21T06:12:00.912Z,97530.84
2022-09-21T06:14:29.265Z,97529.19
2022-09-21T06:16:57.873Z,97525.78
2022-09-21T06:19:25.920Z,97533.28
2022-09-21T06:21:55.922Z,97533.28
2022-09-21T06:24:25.247Z,97529.69
2022-09-21T06:26:53.657Z,97539.09
2022-09-21T06:29:23.708Z,97535.50
2022-09-21T06:31:52.133Z,97528.47
2022-09-21T06:34:20.475Z,97535.13
2022-09-21T06:36:48.423Z,97530.41
2022-09-21T06:39:17.899Z,97528.44
2022-09-21T06:41:46.129Z,97524.69
2022-09-21T06:44:14.577Z,97525.81
2022-09-21T06:46:43.128Z,97521.75
2022-09-21T06:49:11.642Z,97520.25
2022-09-21T06:51:40.070Z,97522.78
2022-09-21T06:54:08.723Z,97527.44
2022-09-21T06:56:38.824Z,97523.69
2022-09-21T06:59:08.688Z,97520.59
2022-09-21T07:01:38.798Z,97522.13
2022-09-21T07:04:09.908Z,97518.50
2022-09-21T08:27:37.671Z,97538.16
2022-09-21T08:34:14.337Z,97533.69
2022-09-21T08:37:35.600Z,97531.16
2022-09-21T08:46:01.399Z,97536.16
2022-09-21T08:48:57.300Z,97538.03
2022-09-21T08:51:41.479Z,97542.41
2022-09-21T08:54:35.579Z,97537.00
2022-09-21T08:57:28.901Z,97535.03
2022-09-21T09:00:10.072Z,97527.78
2022-09-21T09:03:05.495Z,97536.69
2022-09-21T09:06:04.109Z,97531.66
2022-09-21T09:12:21.375Z,97533.09
2022-09-21T09:15:26.636Z,97529.50
2022-09-21T09:18:09.578Z,97529.00
2022-09-21T09:21:04.981Z,97519.50
2022-09-21T09:23:43.892Z,97522.97
2022-09-21T09:26:30.938Z,97521.44
2022-09-21T09:29:10.203Z,97517.34
2022-09-21T09:35:07.009Z,97520.28
2022-09-21T10:08:57.012Z,97505.25
2022-09-21T10:20:16.615Z,97498.69
2022-09-21T10:23:07.868Z,97493.09
2022-09-21T10:26:29.309Z,97490.19
2022-09-21T10:30:00.336Z,97482.56
2022-09-21T10:33:36.858Z,97476.81
2022-09-21T10:37:00.773Z,97479.53
2022-09-21T10:42:13.818Z,97466.34
2022-09-21T11:16:59.445Z,97481.47
2022-09-21T15:47:38.193Z,97328.44
2022-09-21T15:50:18.262Z,97322.97
2022-09-21T15:53:07.147Z,97324.78
2022-09-21T17:10:39.325Z,97347.06
2022-09-21T17:13:07.890Z,97351.25
2022-09-21T17:15:37.003Z,97340.69
2022-09-21T17:18:05.653Z,97346.34
2022-09-21T17:20:36.005Z,97349.72
2022-09-21T17:23:04.225Z,97339.34
2022-09-21T17:25:32.786Z,97342.31
2022-09-21T17:28:03.090Z,97341.00
2022-09-21T17:30:31.920Z,97343.72
2022-09-21T17:32:59.439Z,97344.84
2022-09-21T17:35:31.828Z,97345.16
2022-09-21T17:37:59.841Z,97347.09
2022-09-21T17:40:28.176Z,97347.22
2022-09-21T17:43:11.933Z,97347.50
2022-09-21T17:45:46.845Z,97348.16
2022-09-21T17:48:18.901Z,97361.56
2022-09-21T17:50:46.822Z,97353.16
2022-09-21T17:53:32.539Z,97360.69
2022-09-21T17:56:02.726Z,97358.72
2022-09-21T17:58:45.719Z,97354.72
2022-09-21T18:01:27.330Z,97361.38
2022-09-21T18:03:55.285Z,97369.31
2022-09-21T18:06:23.680Z,97367.59
2022-09-21T18:08:51.694Z,97372.09
2022-09-21T18:11:41.724Z,97374.31
2022-09-21T18:14:19.091Z,97368.69
2022-09-21T18:16:54.479Z,97369.41
2022-09-21T18:19:36.590Z,97369.75
2022-09-21T18:22:23.817Z,97366.69
2022-09-21T18:24:53.115Z,97367.00
2022-09-21T18:27:23.011Z,97367.81
2022-09-21T18:29:51.327Z,97363.94
2022-09-21T18:32:43.446Z,97367.91
2022-09-21T18:35:27.523Z,97368.59
2022-09-21T18:38:15.432Z,97371.38
2022-09-21T18:40:55.971Z,97372.91
2022-09-21T18:43:34.103Z,97366.72
2022-09-21T18:46:04.341Z,97369.69
2022-09-21T18:48:51.675Z,97379.50
2022-09-21T18:51:24.829Z,97382.28
2022-09-21T18:53:55.961Z,97381.47
2022-09-21T18:56:24.364Z,97376.25
2022-09-21T18:58:52.686Z,97372.72
2022-09-21T19:01:22.233Z,97382.19
2022-09-21T19:06:59.921Z,97381.00
2022-09-21T19:09:41.161Z,97382.38
2022-09-21T19:12:20.028Z,97386.16
2022-09-21T19:14:58.156Z,97392.41
2022-09-21T19:17:44.146Z,97401.06
2022-09-21T19:20:30.814Z,97400.44
2022-09-21T19:23:21.901Z,97402.72
2022-09-21T19:25:53.290Z,97401.44
2022-09-21T19:28:44.926Z,97408.16
2022-09-21T19:31:15.395Z,97402.78
2022-09-21T19:33:50.509Z,97399.00
2022-09-21T19:36:20.557Z,97396.41
2022-09-21T19:38:48.713Z,97407.19
2022-09-21T19:41:35.170Z,97404.56
2022-09-21T19:44:16.021Z,97409.44
2022-09-21T19:46:52.198Z,97408.81
2022-09-21T19:49:21.649Z,97406.50
2022-09-21T19:51:52.454Z,97408.47
2022-09-21T19:54:39.179Z,97403.59
2022-09-21T19:57:31.955Z,97403.59
2022-09-21T20:00:00.970Z,97405.72
2022-09-21T20:02:32.732Z,97405.38
2022-09-21T20:05:07.803Z,97410.59
2022-09-21T20:07:44.421Z,97405.06
2022-09-21T20:10:37.979Z,97406.69
2022-09-21T20:13:21.983Z,97395.44
2022-09-21T20:15:56.468Z,97395.25
2022-09-21T20:18:31.027Z,97403.41
2022-09-21T20:20:59.260Z,97402.91
2022-09-21T20:23:30.365Z,97402.41
2022-09-21T20:26:04.370Z,97397.53
2022-09-21T20:28:32.829Z,97395.22
2022-09-21T20:31:00.762Z,97405.00
2022-09-21T20:33:31.992Z,97403.38
2022-09-21T20:36:00.293Z,97404.34
2022-09-21T20:38:29.794Z,97408.59
2022-09-21T20:40:58.599Z,97401.75
2022-09-21T20:43:32.340Z,97399.13
2022-09-21T20:46:00.539Z,97396.06
2022-09-21T20:48:28.250Z,97389.47
2022-09-21T20:50:57.253Z,97398.47
2022-09-21T20:53:24.942Z,97405.38
2022-09-21T20:55:59.024Z,97401.59
2022-09-21T20:58:27.406Z,97404.19
2022-09-21T21:00:58.939Z,97408.53
2022-09-21T21:03:27.088Z,97407.22
2022-09-21T21:05:54.976Z,97411.94
2022-09-21T21:08:22.815Z,97410.00
2022-09-21T21:10:50.537Z,97412.22
2022-09-21T21:13:19.453Z,97416.97
2022-09-21T21:15:47.134Z,97409.31
2022-09-21T21:18:14.685Z,97409.63
2022-09-21T21:20:42.313Z,97414.31
2022-09-21T21:23:10.095Z,97419.03
2022-09-21T21:25:37.745Z,97421.97
2022-09-21T21:28:05.549Z,97416.91
2022-09-21T21:30:34.563Z,97418.84
2022-09-21T21:33:02.528Z,97411.81
2022-09-21T21:35:31.394Z,97414.38
2022-09-21T21:37:59.736Z,97409.94
2022-09-21T21:40:27.596Z,97408.78
2022-09-21T21:42:56.377Z,97408.28
2022-09-21T21:45:24.234Z,97404.34
2022-09-21T21:47:55.210Z,97403.84
2022-09-21T21:50:22.927Z,97400.41
2022-09-21T21:52:50.655Z,97397.66
2022-09-21T21:55:18.351Z,97400.13
2022-09-21T21:57:46.119Z,97398.47
2022-09-21T22:00:14.669Z,97394.09
2022-09-21T22:02:42.415Z,97398.47
2022-09-21T22:05:11.516Z,97394.38
2022-09-21T22:07:40.785Z,97397.16
2022-09-21T22:10:09.864Z,97395.84
2022-09-21T22:12:37.592Z,97403.00
2022-09-21T22:15:05.766Z,97396.13
2022-09-21T22:17:33.450Z,97399.72
2022-09-21T22:20:01.087Z,97406.19
2022-09-21T22:22:30.144Z,97401.13
2022-09-21T22:24:57.856Z,97399.34
2022-09-21T22:27:25.546Z,97402.78
2022-09-21T22:29:53.266Z,97399.53
2022-09-21T22:32:20.952Z,97393.78
2022-09-21T22:34:50.531Z,97386.31
2022-09-21T22:37:18.122Z,97393.78
2022-09-21T22:39:47.119Z,97400.19
2022-09-21T22:42:14.704Z,97399.19
2022-09-21T22:44:42.482Z,97394.81
2022-09-21T22:47:10.037Z,97399.72
2022-09-21T22:49:37.884Z,97399.53
2022-09-21T22:52:06.046Z,97399.72
2022-09-21T22:54:33.754Z,97407.72
2022-09-21T22:57:02.712Z,97399.59
2022-09-21T22:59:30.282Z,97389.50
2022-09-21T23:01:57.994Z,97388.19
2022-09-21T23:04:25.673Z,97388.66
2022-09-21T23:06:53.357Z,97383.06
2022-09-21T23:09:22.504Z,97382.88
2022-09-21T23:11:53.209Z,97377.16
2022-09-21T23:14:23.486Z,97379.91
2022-09-21T23:16:52.899Z,97375.31
2022-09-21T23:19:20.634Z,97371.22
2022-09-21T23:21:50.395Z,97372.50
2022-09-21T23:24:18.655Z,97380.91
2022-09-21T23:26:47.541Z,97379.44
2022-09-21T23:29:16.529Z,97380.50
2022-09-21T23:31:46.484Z,97379.84
2022-09-21T23:34:16.551Z,97374.19
2022-09-21T23:36:45.676Z,97378.22
2022-09-21T23:39:14.509Z,97383.91
2022-09-21T23:41:42.618Z,97378.94
2022-09-21T23:44:10.604Z,97384.09
2022-09-21T23:46:39.741Z,97383.06
2022-09-21T23:49:09.206Z,97381.94
2022-09-21T23:51:36.948Z,97382.66
2022-09-21T23:54:05.012Z,97378.03
2022-09-21T23:56:33.006Z,97376.25
2022-09-21T23:59:01.309Z,97378.94
